createdAt,value
2022-12-19T00:00:50.728Z,-2.20
2022-12-19T00:03:17.659Z,-2.10
2022-12-19T00:05:46.744Z,-2.10
2022-12-19T00:08:17.672Z,-2.10
2022-12-19T00:10:44.641Z,-2.10
2022-12-19T00:13:11.194Z,-2.10
2022-12-19T00:15:37.797Z,-2.00
2022-12-19T00:18:06.623Z,-2.00
2022-12-19T00:20:33.160Z,-2.00
2022-12-19T00:22:59.735Z,-2.00
2022-12-19T00:25:26.343Z,-2.10
2022-12-19T00:27:53.221Z,-2.00
2022-12-19T00:30:19.801Z,-2.00
2022-12-19T00:32:47.583Z,-2.00
2022-12-19T00:35:14.288Z,-2.00
2022-12-19T00:37:41.684Z,-2.00
2022-12-19T00:40:16.060Z,-2.00
2022-12-19T00:42:42.611Z,-1.90
2022-12-19T00:45:09.312Z,-2.00
2022-12-19T00:47:35.839Z,-2.00
2022-12-19T00:50:02.854Z,-2.00
2022-12-19T00:52:31.626Z,-2.00
2022-12-19T00:55:00.309Z,-2.00
2022-12-19T00:57:26.955Z,-2.00
2022-12-19T00:59:53.567Z,-2.00
2022-12-19T01:02:20.298Z,-2.00
2022-12-19T01:04:46.977Z,-2.00
2022-12-19T01:07:15.801Z,-2.00
2022-12-19T01:09:42.328Z,-1.90
2022-12-19T01:12:28.813Z,-2.00
2022-12-19T01:15:04.375Z,-2.00
2022-12-19T01:17:43.712Z,-1.90
2022-12-19T01:20:11.461Z,-1.90
2022-12-19T01:22:40.515Z,-1.90
2022-12-19T01:25:07.610Z,-1.90
2022-12-19T01:27:34.242Z,-1.90
2022-12-19T01:30:00.799Z,-1.80
2022-12-19T01:32:27.475Z,-1.80
2022-12-19T01:34:56.588Z,-1.80
2022-12-19T01:37:23.121Z,-1.80
2022-12-19T01:39:49.690Z,-1.90
2022-12-19T01:42:23.408Z,-1.80
2022-12-19T01:45:05.380Z,-1.80
2022-12-19T01:47:33.028Z,-1.80
2022-12-19T01:50:01.133Z,-1.80
2022-12-19T01:52:27.753Z,-1.80
2022-12-19T01:54:54.290Z,-1.80
2022-12-19T01:57:21.304Z,-1.80
2022-12-19T01:59:52.795Z,-1.70
2022-12-19T02:02:23.415Z,-1.70
2022-12-19T02:04:50.097Z,-1.70
2022-12-19T02:07:18.387Z,-1.70
2022-12-19T02:09:45.913Z,-1.60
2022-12-19T02:12:12.748Z,-1.70
2022-12-19T02:14:39.392Z,-1.70
2022-12-19T02:17:19.454Z,-1.60
2022-12-19T02:20:04.547Z,-1.50
2022-12-19T02:22:46.316Z,-1.50
2022-12-19T02:25:48.835Z,-1.60
2022-12-19T02:28:28.625Z,-1.60
2022-12-19T02:31:21.678Z,-1.50
2022-12-19T02:33:56.297Z,-1.60
2022-12-19T02:36:46.928Z,-1.50
2022-12-19T02:39:18.095Z,-1.50
2022-12-19T02:41:50.062Z,-1.50
2022-12-19T02:44:29.137Z,-1.50
2022-12-19T02:46:55.797Z,-1.50
2022-12-19T02:49:26.889Z,-1.40
2022-12-19T02:51:57.476Z,-1.50
2022-12-19T02:54:24.250Z,-1.40
2022-12-19T02:56:54.692Z,-1.50
2022-12-19T02:59:45.102Z,-1.40
2022-12-19T03:02:21.357Z,-1.50
2022-12-19T03:04:51.973Z,-1.40
2022-12-19T03:07:27.930Z,-1.40
2022-12-19T03:10:05.204Z,-1.30
2022-12-19T03:12:38.073Z,-1.40
2022-12-19T03:15:10.033Z,-1.40
2022-12-19T03:17:39.839Z,-1.30
2022-12-19T03:20:14.054Z,-1.30
2022-12-19T03:22:40.678Z,-1.30
2022-12-19T03:25:08.232Z,-1.30
2022-12-19T03:27:38.093Z,-1.30
2022-12-19T03:30:10.211Z,-1.30
2022-12-19T03:32:38.048Z,-1.20
2022-12-19T03:35:06.851Z,-1.20
2022-12-19T03:37:36.255Z,-1.30
2022-12-19T03:40:08.810Z,-1.20
2022-12-19T03:42:58.237Z,-1.20
2022-12-19T03:45:40.353Z,-1.20
2022-12-19T03:48:26.277Z,-1.20
2022-12-19T03:51:04.550Z,-1.10
2022-12-19T03:53:58.984Z,-1.10
2022-12-19T03:56:25.539Z,-1.10
2022-12-19T03:58:58.553Z,-1.10
2022-12-19T04:01:28.308Z,-1.00
2022-12-19T04:03:56.352Z,-1.10
2022-12-19T04:06:23.216Z,-1.10
2022-12-19T04:08:50.168Z,-1.10
2022-12-19T04:11:21.671Z,-1.20
2022-12-19T04:13:51.537Z,-1.20
2022-12-19T04:16:30.078Z,-1.20
2022-12-19T04:19:03.422Z,-1.10
2022-12-19T04:21:42.136Z,-1.10
2022-12-19T04:24:12.200Z,-1.10
2022-12-19T04:26:38.981Z,-1.10
2022-12-19T04:29:08.973Z,-1.00
2022-12-19T04:31:36.468Z,-1.00
2022-12-19T04:34:03.060Z,-1.00
2022-12-19T04:36:29.729Z,-1.00
2022-12-19T04:38:56.982Z,-1.00
2022-12-19T04:41:23.614Z,-1.10
2022-12-19T04:43:52.418Z,-1.10
2022-12-19T04:46:21.233Z,-1.10
2022-12-19T04:48:50.684Z,-1.10
2022-12-19T04:51:17.393Z,-1.10
2022-12-19T04:53:43.958Z,-1.10
2022-12-19T04:56:10.614Z,-1.00
2022-12-19T04:58:37.174Z,-1.00
2022-12-19T05:01:04.372Z,-0.90
2022-12-19T05:03:33.445Z,-0.90
2022-12-19T05:06:03.907Z,-0.90
2022-12-19T05:08:30.417Z,-0.90
2022-12-19T05:11:00.807Z,-0.90
2022-12-19T05:13:30.152Z,-0.90
2022-12-19T05:15:57.786Z,-0.80
2022-12-19T05:18:25.201Z,-0.80
2022-12-19T05:20:51.961Z,-0.80
2022-12-19T05:23:18.655Z,-0.80
2022-12-19T05:25:45.323Z,-0.80
2022-12-19T05:28:14.641Z,-0.80
2022-12-19T05:30:41.281Z,-0.80
2022-12-19T05:33:08.171Z,-0.70
2022-12-19T05:35:35.386Z,-0.70
2022-12-19T05:38:02.223Z,-0.70
2022-12-19T05:40:31.279Z,-0.60
2022-12-19T05:42:57.853Z,-0.60
2022-12-19T05:45:24.597Z,-0.60
2022-12-19T05:47:51.128Z,-0.50
2022-12-19T05:50:18.051Z,-0.50
2022-12-19T05:52:44.664Z,-0.50
2022-12-19T05:55:11.324Z,-0.50
2022-12-19T05:57:37.901Z,-0.50
2022-12-19T06:00:05.626Z,-0.50
2022-12-19T06:02:33.339Z,-0.50
2022-12-19T06:05:02.510Z,-0.50
2022-12-19T06:07:30.213Z,-0.50
2022-12-19T06:09:56.819Z,-0.40
2022-12-19T06:12:25.813Z,-0.40
2022-12-19T06:14:52.406Z,-0.40
2022-12-19T06:17:19.060Z,-0.40
2022-12-19T06:19:45.649Z,-0.40
2022-12-19T06:22:12.193Z,-0.50
2022-12-19T06:24:38.764Z,-0.50
2022-12-19T06:27:05.345Z,-0.40
2022-12-19T06:29:31.907Z,-0.40
2022-12-19T06:31:58.509Z,-0.40
2022-12-19T06:34:55.049Z,-0.40
2022-12-19T06:37:11.959Z,-0.30
2022-12-19T06:39:41.003Z,-0.40
2022-12-19T06:42:23.639Z,-0.40
2022-12-19T06:44:56.857Z,-0.30
2022-12-19T06:47:23.677Z,-0.30
2022-12-19T06:49:50.260Z,-0.30
2022-12-19T06:52:17.241Z,-0.30
2022-12-19T06:54:46.374Z,-0.20
2022-12-19T06:57:12.960Z,-0.20
2022-12-19T06:59:39.534Z,-0.20
2022-12-19T07:02:25.279Z,-0.20
2022-12-19T07:04:55.133Z,-0.20
2022-12-19T07:07:21.706Z,-0.10
2022-12-19T07:09:48.407Z,0.00
2022-12-19T07:12:14.984Z,-0.10
2022-12-19T07:14:46.735Z,0.00
2022-12-19T07:17:15.844Z,-0.10
2022-12-19T07:19:42.472Z,-0.10
2022-12-19T07:22:09.798Z,0.00
2022-12-19T07:24:36.600Z,0.00
2022-12-19T07:27:03.259Z,0.00
2022-12-19T07:29:32.083Z,0.00
2022-12-19T07:31:58.708Z,0.00
2022-12-19T07:34:25.309Z,0.00
2022-12-19T07:36:51.885Z,-0.10
2022-12-19T07:39:18.613Z,-0.10
2022-12-19T07:41:45.216Z,-0.10
2022-12-19T07:44:13.310Z,-0.10
2022-12-19T07:46:42.301Z,0.00
2022-12-19T07:49:09.105Z,0.00
2022-12-19T07:51:38.099Z,0.00
2022-12-19T07:54:04.683Z,0.10
2022-12-19T07:56:31.245Z,0.10
2022-12-19T07:59:00.749Z,0.20
2022-12-19T08:01:29.868Z,0.20
2022-12-19T08:03:56.744Z,0.20
2022-12-19T08:06:24.547Z,0.20
2022-12-19T08:08:51.127Z,0.30
2022-12-19T08:11:18.967Z,0.30
2022-12-19T08:13:46.910Z,0.40
2022-12-19T08:16:14.086Z,0.30
2022-12-19T08:18:40.808Z,0.30
2022-12-19T08:21:08.151Z,0.40
2022-12-19T08:23:34.731Z,0.40
2022-12-19T08:26:05.004Z,0.40
2022-12-19T08:28:32.686Z,0.30
2022-12-19T08:31:11.302Z,0.30
2022-12-19T08:33:40.330Z,0.30
2022-12-19T08:36:10.787Z,0.40
2022-12-19T08:38:39.570Z,0.40
2022-12-19T08:41:06.285Z,0.40
2022-12-19T08:43:32.919Z,0.50
2022-12-19T08:45:59.535Z,0.30
2022-12-19T08:48:28.621Z,0.50
2022-12-19T08:50:59.081Z,0.60
2022-12-19T08:53:26.920Z,0.60
2022-12-19T08:55:57.247Z,0.80
2022-12-19T08:58:24.169Z,0.60
2022-12-19T09:00:57.696Z,0.60
2022-12-19T09:03:32.044Z,0.70
2022-12-19T09:06:18.857Z,0.70
2022-12-19T09:08:46.097Z,0.80
2022-12-19T09:11:16.436Z,0.70
2022-12-19T09:13:43.834Z,0.80
2022-12-19T09:16:21.205Z,0.80
2022-12-19T09:18:49.083Z,0.80
2022-12-19T09:21:16.346Z,0.80
2022-12-19T09:23:43.353Z,0.80
2022-12-19T09:26:14.711Z,0.80
2022-12-19T09:28:41.820Z,0.80
2022-12-19T09:31:11.069Z,0.80
2022-12-19T09:33:43.382Z,0.80
2022-12-19T09:36:15.507Z,1.00
2022-12-19T09:41:38.245Z,1.10
2022-12-19T09:46:44.868Z,0.80
2022-12-19T09:49:16.039Z,0.80
2022-12-19T09:52:04.143Z,0.80
2022-12-19T09:54:43.374Z,0.80
2022-12-19T09:57:13.668Z,0.90
2022-12-19T09:59:49.625Z,0.90
2022-12-19T10:02:16.949Z,0.90
2022-12-19T10:04:48.113Z,0.90
2022-12-19T10:07:45.396Z,0.90
2022-12-19T10:12:02.441Z,0.90
2022-12-19T10:13:01.699Z,0.80
2022-12-19T10:15:39.894Z,0.80
2022-12-19T10:18:18.601Z,0.80
2022-12-19T10:20:50.281Z,0.90
2022-12-19T10:23:20.649Z,0.90
2022-12-19T10:26:00.191Z,1.00
2022-12-19T10:28:29.845Z,1.00
2022-12-19T10:31:21.520Z,1.10
2022-12-19T10:33:53.379Z,1.10
2022-12-19T10:36:19.969Z,1.00
2022-12-19T10:38:54.088Z,1.10
2022-12-19T10:41:31.317Z,1.10
2022-12-19T10:43:58.864Z,1.10
2022-12-19T10:46:46.162Z,1.10
2022-12-19T10:49:21.726Z,1.10
2022-12-19T10:52:10.319Z,1.10
2022-12-19T10:54:38.459Z,1.20
2022-12-19T10:57:23.874Z,1.20
2022-12-19T10:59:54.495Z,1.20
2022-12-19T11:02:36.275Z,1.20
2022-12-19T11:05:03.721Z,1.20
2022-12-19T11:07:32.524Z,1.20
2022-12-19T11:11:19.314Z,1.20
2022-12-19T11:16:38.304Z,1.20
2022-12-19T11:18:43.378Z,1.30
2022-12-19T11:29:26.987Z,1.30
2022-12-19T11:30:36.058Z,1.30
2022-12-19T11:30:37.983Z,1.30
2022-12-19T11:33:12.332Z,1.40
2022-12-19T11:35:49.592Z,1.40
2022-12-19T11:38:20.118Z,1.50
2022-12-19T11:40:53.140Z,1.50
2022-12-19T11:46:27.820Z,1.50
2022-12-19T11:49:00.447Z,1.60
2022-12-19T11:51:39.928Z,1.60
2022-12-19T11:54:06.878Z,1.60
2022-12-19T11:56:33.535Z,1.60
2022-12-19T11:59:02.406Z,1.60
2022-12-19T12:01:44.207Z,1.60
2022-12-19T12:04:30.827Z,1.60
2022-12-19T12:06:57.778Z,1.60
2022-12-19T12:11:10.476Z,1.60
2022-12-19T12:19:46.081Z,1.60
2022-12-19T12:25:00.114Z,1.60
2022-12-19T12:31:00.204Z,1.50
2022-12-19T12:31:05.749Z,1.50
2022-12-19T12:31:39.390Z,1.50
2022-12-19T12:31:44.391Z,1.60
2022-12-19T12:32:02.768Z,1.60
2022-12-19T12:35:38.455Z,1.70
2022-12-19T12:38:31.690Z,1.60
2022-12-19T12:41:08.041Z,1.70
2022-12-19T12:43:34.653Z,1.70
2022-12-19T12:46:03.289Z,1.60
2022-12-19T12:48:29.910Z,1.60
2022-12-19T12:50:57.850Z,1.60
2022-12-19T12:53:28.086Z,1.70
2022-12-19T12:55:55.746Z,1.70
2022-12-19T12:58:40.860Z,1.70
2022-12-19T13:01:26.260Z,1.60
2022-12-19T13:03:56.264Z,1.60
2022-12-19T13:06:29.334Z,1.60
2022-12-19T13:09:02.130Z,1.60
2022-12-19T13:11:47.390Z,1.60
2022-12-19T13:14:43.412Z,1.60
2022-12-19T13:17:45.326Z,1.50
2022-12-19T13:20:15.548Z,1.50
2022-12-19T13:22:43.510Z,1.60
2022-12-19T13:25:33.135Z,1.60
2022-12-19T13:28:02.813Z,1.60
2022-12-19T13:30:30.387Z,1.60
2022-12-19T13:32:57.779Z,1.60
2022-12-19T13:36:59.600Z,1.70
2022-12-19T13:39:50.025Z,1.60
2022-12-19T13:41:44.124Z,1.70
2022-12-19T13:44:11.795Z,1.60
2022-12-19T13:46:42.942Z,1.70
2022-12-19T13:49:12.399Z,1.70
2022-12-19T13:51:51.902Z,1.70
2022-12-19T13:54:29.544Z,1.70
2022-12-19T13:56:58.990Z,1.70
2022-12-19T13:59:28.917Z,1.80
2022-12-19T14:01:55.829Z,1.80
2022-12-19T14:04:22.549Z,1.80
2022-12-19T14:06:56.811Z,1.80
2022-12-19T14:11:28.002Z,1.80
2022-12-19T14:13:52.815Z,1.80
2022-12-19T14:15:30.869Z,1.80
2022-12-19T14:17:59.730Z,1.80
2022-12-19T14:22:03.797Z,1.90
2022-12-19T14:23:43.607Z,1.90
2022-12-19T14:28:18.528Z,1.90
2022-12-19T14:29:13.680Z,2.00
2022-12-19T14:32:15.160Z,2.00
2022-12-19T14:35:47.771Z,2.00
2022-12-19T14:37:55.520Z,2.00
2022-12-19T14:40:26.708Z,1.90
2022-12-19T14:43:59.639Z,1.90
2022-12-19T14:53:34.400Z,1.90
2022-12-19T14:54:07.605Z,1.90
2022-12-19T14:54:34.888Z,1.90
2022-12-19T14:56:13.564Z,1.80
2022-12-19T14:58:52.565Z,1.80
2022-12-19T15:01:09.438Z,1.80
2022-12-19T15:04:47.251Z,1.80
2022-12-19T15:07:09.058Z,1.80
2022-12-19T15:11:08.584Z,1.80
2022-12-19T15:14:03.867Z,1.80
2022-12-19T15:15:23.495Z,1.80
2022-12-19T15:17:53.536Z,1.80
2022-12-19T15:20:20.079Z,1.70
2022-12-19T15:22:46.957Z,1.80
2022-12-19T15:25:52.770Z,1.80
2022-12-19T15:28:08.029Z,1.80
2022-12-19T15:30:36.201Z,1.80
2022-12-19T15:33:02.758Z,1.80
2022-12-19T15:35:29.331Z,1.70
2022-12-19T15:37:55.886Z,1.70
2022-12-19T15:40:25.087Z,1.70
2022-12-19T15:42:54.778Z,1.70
2022-12-19T15:45:24.647Z,1.80
2022-12-19T15:47:51.984Z,1.80
2022-12-19T15:50:20.303Z,1.70
2022-12-19T15:52:51.581Z,1.60
2022-12-19T15:55:18.837Z,1.70
2022-12-19T15:57:56.217Z,1.60
2022-12-19T16:00:26.326Z,1.60
2022-12-19T16:05:42.776Z,1.60
2022-12-19T16:08:11.729Z,1.60
2022-12-19T16:10:38.485Z,1.60
2022-12-19T16:13:05.196Z,1.50
2022-12-19T16:15:33.530Z,1.50
2022-12-19T16:18:01.243Z,1.50
2022-12-19T16:20:29.040Z,1.50
2022-12-19T16:22:55.575Z,1.50
2022-12-19T16:25:22.797Z,1.50
2022-12-19T16:27:53.609Z,1.60
2022-12-19T16:30:22.125Z,1.60
2022-12-19T16:32:52.078Z,1.60
2022-12-19T16:35:40.356Z,1.50
2022-12-19T16:38:09.955Z,1.50
2022-12-19T16:40:36.548Z,1.50
2022-12-19T16:43:21.829Z,1.60
2022-12-19T16:45:48.419Z,1.60
2022-12-19T16:48:18.725Z,1.60
2022-12-19T16:50:45.339Z,1.70
2022-12-19T16:53:11.908Z,1.70
2022-12-19T16:55:38.532Z,1.70
2022-12-19T16:58:09.921Z,1.60
2022-12-19T17:00:37.536Z,1.60
2022-12-19T17:03:10.947Z,1.60
2022-12-19T17:05:37.528Z,1.60
2022-12-19T17:08:10.166Z,1.60
2022-12-19T17:10:36.755Z,1.60
2022-12-19T17:13:03.394Z,1.60
2022-12-19T17:15:37.381Z,1.60
2022-12-19T17:18:07.294Z,1.60
2022-12-19T17:20:41.896Z,1.70
2022-12-19T17:23:13.112Z,1.70
2022-12-19T17:25:39.845Z,1.70
2022-12-19T17:28:06.417Z,1.70
2022-12-19T17:30:34.174Z,1.70
2022-12-19T17:33:00.786Z,1.80
2022-12-19T17:35:28.838Z,1.80
2022-12-19T17:37:58.273Z,1.70
2022-12-19T17:40:26.519Z,1.70
2022-12-19T17:42:54.475Z,1.80
2022-12-19T17:45:22.256Z,1.80
2022-12-19T17:47:49.085Z,1.80
2022-12-19T17:50:18.699Z,1.80
2022-12-19T17:52:45.259Z,1.70
2022-12-19T17:55:14.409Z,1.70
2022-12-19T17:57:41.027Z,1.70
2022-12-19T18:00:07.999Z,1.70
2022-12-19T18:02:36.244Z,1.60
2022-12-19T18:05:03.013Z,1.60
2022-12-19T18:07:29.594Z,1.60
2022-12-19T18:09:58.697Z,1.60
2022-12-19T18:12:25.295Z,1.60
2022-12-19T18:14:51.853Z,1.70
2022-12-19T18:17:25.616Z,1.70
2022-12-19T18:19:52.324Z,1.60
2022-12-19T18:22:19.039Z,1.60
2022-12-19T18:24:45.556Z,1.60
2022-12-19T18:27:12.136Z,1.50
2022-12-19T18:29:38.672Z,1.50
2022-12-19T18:32:05.215Z,1.50
2022-12-19T18:34:33.265Z,1.50
2022-12-19T18:37:02.607Z,1.50
2022-12-19T18:39:29.306Z,1.50
2022-12-19T18:41:58.404Z,1.60
2022-12-19T18:44:27.393Z,1.60
2022-12-19T18:46:54.104Z,1.60
2022-12-19T18:49:20.749Z,1.60
2022-12-19T18:51:48.743Z,1.60
2022-12-19T18:54:17.301Z,1.60
2022-12-19T18:56:46.512Z,1.60
2022-12-19T18:59:13.143Z,1.60
2022-12-19T19:01:42.052Z,1.60
2022-12-19T19:04:11.967Z,1.60
2022-12-19T19:06:39.600Z,1.60
2022-12-19T19:09:14.622Z,1.60
2022-12-19T19:11:41.259Z,1.60
2022-12-19T19:14:08.146Z,1.60
2022-12-19T19:16:38.259Z,1.60
2022-12-19T19:19:08.991Z,1.60
2022-12-19T19:21:38.604Z,1.70
2022-12-19T19:24:10.566Z,1.60
2022-12-19T19:26:37.159Z,1.70
2022-12-19T19:29:05.028Z,1.70
2022-12-19T19:31:34.282Z,1.60
2022-12-19T19:34:04.525Z,1.60
2022-12-19T19:36:31.912Z,1.60
2022-12-19T19:39:00.918Z,1.60
2022-12-19T19:41:29.850Z,1.60
2022-12-19T19:43:57.161Z,1.70
2022-12-19T19:46:23.751Z,1.80
2022-12-19T19:48:53.151Z,1.70
2022-12-19T19:51:19.692Z,1.80
2022-12-19T19:53:46.696Z,1.80
2022-12-19T19:56:13.274Z,1.80
2022-12-19T19:58:39.865Z,1.80
2022-12-19T20:01:10.813Z,1.80
2022-12-19T20:03:37.966Z,1.90
2022-12-19T20:06:04.973Z,1.90
2022-12-19T20:08:38.767Z,1.90
2022-12-19T20:11:06.292Z,1.90
2022-12-19T20:13:33.223Z,1.90
2022-12-19T20:16:18.946Z,1.90
2022-12-19T20:18:50.035Z,2.00
2022-12-19T20:21:17.314Z,2.00
2022-12-19T20:23:43.902Z,2.00
2022-12-19T20:26:15.465Z,2.00
2022-12-19T20:28:48.276Z,2.00
2022-12-19T20:31:16.585Z,2.00
2022-12-19T20:33:43.493Z,2.00
2022-12-19T20:36:11.187Z,2.10
2022-12-19T20:38:38.075Z,2.10
2022-12-19T20:41:04.908Z,2.10
2022-12-19T20:43:33.844Z,2.10
2022-12-19T20:46:01.237Z,2.20
2022-12-19T20:48:27.855Z,2.20
2022-12-19T20:50:57.884Z,2.10
2022-12-19T20:53:24.774Z,2.00
2022-12-19T20:55:57.623Z,2.00
2022-12-19T20:58:26.186Z,2.00
2022-12-19T21:01:16.169Z,2.10
2022-12-19T21:03:44.332Z,2.00
2022-12-19T21:06:12.669Z,2.10
2022-12-19T21:08:44.787Z,2.00
2022-12-19T21:11:16.489Z,2.00
2022-12-19T21:13:45.781Z,2.00
2022-12-19T21:16:13.812Z,2.00
2022-12-19T21:18:41.484Z,2.00
2022-12-19T21:21:09.143Z,2.00
2022-12-19T21:23:35.825Z,2.10
2022-12-19T21:26:05.938Z,2.10
2022-12-19T21:31:05.150Z,2.10
2022-12-19T21:33:31.839Z,2.10
2022-12-19T21:36:04.516Z,2.20
2022-12-19T21:38:31.092Z,2.20
2022-12-19T21:40:57.667Z,2.10
2022-12-19T21:43:24.245Z,2.10
2022-12-19T21:45:50.783Z,2.10
2022-12-19T21:48:17.396Z,2.20
2022-12-19T21:50:46.555Z,2.20
2022-12-19T21:53:13.145Z,2.20
2022-12-19T21:55:40.086Z,2.20
2022-12-19T21:58:06.605Z,2.20
2022-12-19T22:00:33.279Z,2.30
2022-12-19T22:03:13.993Z,2.20
2022-12-19T22:05:41.329Z,2.30
2022-12-19T22:08:10.638Z,2.30
2022-12-19T22:10:38.125Z,2.30
2022-12-19T22:13:04.843Z,2.40
2022-12-19T22:15:31.472Z,2.40
2022-12-19T22:17:58.129Z,2.40
2022-12-19T22:20:24.665Z,2.40
2022-12-19T22:22:51.242Z,2.40
2022-12-19T22:25:17.808Z,2.40
2022-12-19T22:27:44.604Z,2.30
2022-12-19T22:30:11.588Z,2.40
2022-12-19T22:32:40.696Z,2.40
2022-12-19T22:35:10.450Z,2.40
2022-12-19T22:37:37.096Z,2.40
2022-12-19T22:40:04.052Z,2.50
2022-12-19T22:42:30.717Z,2.50
2022-12-19T22:44:57.365Z,2.50
2022-12-19T22:47:23.961Z,2.50
2022-12-19T22:49:51.185Z,2.50
2022-12-19T22:52:17.957Z,2.50
2022-12-19T22:54:44.567Z,2.60
2022-12-19T22:57:13.674Z,2.60
2022-12-19T22:59:40.529Z,2.60
2022-12-19T23:02:09.628Z,2.60
2022-12-19T23:04:36.243Z,2.60
2022-12-19T23:07:02.877Z,2.60
2022-12-19T23:09:31.856Z,2.60
2022-12-19T23:11:58.426Z,2.60
2022-12-19T23:14:27.404Z,2.60
2022-12-19T23:16:53.984Z,2.50
2022-12-19T23:19:20.590Z,2.60
2022-12-19T23:21:47.286Z,2.50
2022-12-19T23:24:13.983Z,2.50
2022-12-19T23:26:40.904Z,2.50
2022-12-19T23:29:11.868Z,2.60
2022-12-19T23:31:41.893Z,2.60
2022-12-19T23:34:11.105Z,2.60
2022-12-19T23:39:28.529Z,2.60
2022-12-19T23:41:55.270Z,2.60
2022-12-19T23:44:22.007Z,2.60
2022-12-19T23:46:51.094Z,2.60
2022-12-19T23:49:17.634Z,2.60
2022-12-19T23:51:44.196Z,2.60
2022-12-19T23:54:11.352Z,2.60
2022-12-19T23:56:38.005Z,2.60
2022-12-19T23:59:04.649Z,2.60
